sensor_id;sensor_type;location;lat;lon;timestamp;temperature;humidity
68350;DHT22;55268;-34.538;-58.598;2022-09-28T00:01:23;19.00;41.50
68350;DHT22;55268;-34.538;-58.598;2022-09-28T00:03:53;18.90;40.40
68350;DHT22;55268;-34.538;-58.598;2022-09-28T00:06:26;18.80;40.20
68350;DHT22;55268;-34.538;-58.598;2022-09-28T00:08:54;18.70;40.20
68350;DHT22;55268;-34.538;-58.598;2022-09-28T00:11:24;18.60;40.70
68350;DHT22;55268;-34.538;-58.598;2022-09-28T00:13:58;18.50;40.70
68350;DHT22;55268;-34.538;-58.598;2022-09-28T00:16:36;18.40;40.60
68350;DHT22;55268;-34.538;-58.598;2022-09-28T00:19:04;18.30;40.50
68350;DHT22;55268;-34.538;-58.598;2022-09-28T00:21:35;18.20;40.40
68350;DHT22;55268;-34.538;-58.598;2022-09-28T00:24:05;18.20;40.40
68350;DHT22;55268;-34.538;-58.598;2022-09-28T00:26:49;18.10;40.70
68350;DHT22;55268;-34.538;-58.598;2022-09-28T00:29:29;18.10;41.00
68350;DHT22;55268;-34.538;-58.598;2022-09-28T00:32:01;18.00;41.20
68350;DHT22;55268;-34.538;-58.598;2022-09-28T00:34:38;18.00;41.60
68350;DHT22;55268;-34.538;-58.598;2022-09-28T00:37:08;17.80;41.80
68350;DHT22;55268;-34.538;-58.598;2022-09-28T00:39:38;17.80;42.30
68350;DHT22;55268;-34.538;-58.598;2022-09-28T00:42:19;17.80;42.00
68350;DHT22;55268;-34.538;-58.598;2022-09-28T00:44:50;17.70;42.60
68350;DHT22;55268;-34.538;-58.598;2022-09-28T00:50:29;17.60;42.00
68350;DHT22;55268;-34.538;-58.598;2022-09-28T00:55:47;17.50;43.00
68350;DHT22;55268;-34.538;-58.598;2022-09-28T00:58:21;17.50;42.70
68350;DHT22;55268;-34.538;-58.598;2022-09-28T01:00:55;17.50;42.70
68350;DHT22;55268;-34.538;-58.598;2022-09-28T01:03:28;17.40;42.40
68350;DHT22;55268;-34.538;-58.598;2022-09-28T01:05:58;17.40;41.10
68350;DHT22;55268;-34.538;-58.598;2022-09-28T01:08:29;17.30;41.10
68350;DHT22;55268;-34.538;-58.598;2022-09-28T01:10:59;17.30;41.70
68350;DHT22;55268;-34.538;-58.598;2022-09-28T01:13:26;17.20;41.80
68350;DHT22;55268;-34.538;-58.598;2022-09-28T01:21:18;17.10;41.20
68350;DHT22;55268;-34.538;-58.598;2022-09-28T01:24:13;17.10;41.80
68350;DHT22;55268;-34.538;-58.598;2022-09-28T01:26:55;17.00;41.70
68350;DHT22;55268;-34.538;-58.598;2022-09-28T01:29:34;17.00;41.10
68350;DHT22;55268;-34.538;-58.598;2022-09-28T01:37:55;16.80;41.20
68350;DHT22;55268;-34.538;-58.598;2022-09-28T01:40:29;16.80;42.10
68350;DHT22;55268;-34.538;-58.598;2022-09-28T01:43:15;16.70;42.30
68350;DHT22;55268;-34.538;-58.598;2022-09-28T01:45:50;16.70;43.30
68350;DHT22;55268;-34.538;-58.598;2022-09-28T01:48:26;16.60;43.20
68350;DHT22;55268;-34.538;-58.598;2022-09-28T01:50:58;16.60;44.00
68350;DHT22;55268;-34.538;-58.598;2022-09-28T01:53:45;16.50;44.00
68350;DHT22;55268;-34.538;-58.598;2022-09-28T01:56:19;16.50;44.40
68350;DHT22;55268;-34.538;-58.598;2022-09-28T01:58:56;16.50;44.90
68350;DHT22;55268;-34.538;-58.598;2022-09-28T02:01:38;16.50;45.30
68350;DHT22;55268;-34.538;-58.598;2022-09-28T02:04:23;16.50;45.60
68350;DHT22;55268;-34.538;-58.598;2022-09-28T02:07:13;16.50;46.20
68350;DHT22;55268;-34.538;-58.598;2022-09-28T02:09:48;16.40;46.60
68350;DHT22;55268;-34.538;-58.598;2022-09-28T02:12:18;16.40;46.60
68350;DHT22;55268;-34.538;-58.598;2022-09-28T02:14:48;16.40;46.80
68350;DHT22;55268;-34.538;-58.598;2022-09-28T02:17:19;16.30;46.70
68350;DHT22;55268;-34.538;-58.598;2022-09-28T02:19:47;16.20;47.20
68350;DHT22;55268;-34.538;-58.598;2022-09-28T02:22:36;16.20;47.30
68350;DHT22;55268;-34.538;-58.598;2022-09-28T02:25:12;16.20;47.60
68350;DHT22;55268;-34.538;-58.598;2022-09-28T02:28:05;16.10;47.50
68350;DHT22;55268;-34.538;-58.598;2022-09-28T02:30:35;16.10;47.50
68350;DHT22;55268;-34.538;-58.598;2022-09-28T02:33:19;16.00;47.70
68350;DHT22;55268;-34.538;-58.598;2022-09-28T02:35:48;16.00;47.50
68350;DHT22;55268;-34.538;-58.598;2022-09-28T02:38:17;16.00;47.50
68350;DHT22;55268;-34.538;-58.598;2022-09-28T02:40:56;16.00;47.70
68350;DHT22;55268;-34.538;-58.598;2022-09-28T02:46:36;16.00;48.00
68350;DHT22;55268;-34.538;-58.598;2022-09-28T02:49:11;16.00;48.00
68350;DHT22;55268;-34.538;-58.598;2022-09-28T02:59:52;15.80;47.70
68350;DHT22;55268;-34.538;-58.598;2022-09-28T03:05:29;15.70;47.90
68350;DHT22;55268;-34.538;-58.598;2022-09-28T03:07:59;15.70;48.00
68350;DHT22;55268;-34.538;-58.598;2022-09-28T03:13:04;15.60;47.70
68350;DHT22;55268;-34.538;-58.598;2022-09-28T03:15:34;15.60;47.70
68350;DHT22;55268;-34.538;-58.598;2022-09-28T03:18:02;15.50;47.70
68350;DHT22;55268;-34.538;-58.598;2022-09-28T03:20:36;15.50;47.60
68350;DHT22;55268;-34.538;-58.598;2022-09-28T03:23:05;15.50;48.00
68350;DHT22;55268;-34.538;-58.598;2022-09-28T03:25:32;15.50;48.00
68350;DHT22;55268;-34.538;-58.598;2022-09-28T03:28:00;15.40;47.90
68350;DHT22;55268;-34.538;-58.598;2022-09-28T03:30:27;15.40;48.10
68350;DHT22;55268;-34.538;-58.598;2022-09-28T03:32:58;15.40;47.50
68350;DHT22;55268;-34.538;-58.598;2022-09-28T03:35:26;15.40;47.00
68350;DHT22;55268;-34.538;-58.598;2022-09-28T03:37:56;15.30;46.90
68350;DHT22;55268;-34.538;-58.598;2022-09-28T03:40:25;15.30;47.40
68350;DHT22;55268;-34.538;-58.598;2022-09-28T03:42:52;15.30;47.70
68350;DHT22;55268;-34.538;-58.598;2022-09-28T03:45:20;15.20;48.60
68350;DHT22;55268;-34.538;-58.598;2022-09-28T03:47:48;15.20;49.00
68350;DHT22;55268;-34.538;-58.598;2022-09-28T03:50:15;15.20;49.40
68350;DHT22;55268;-34.538;-58.598;2022-09-28T03:52:42;15.10;50.00
68350;DHT22;55268;-34.538;-58.598;2022-09-28T03:55:10;15.10;50.50
68350;DHT22;55268;-34.538;-58.598;2022-09-28T03:57:37;15.00;50.40
68350;DHT22;55268;-34.538;-58.598;2022-09-28T04:00:05;15.10;50.60
68350;DHT22;55268;-34.538;-58.598;2022-09-28T04:02:34;15.10;50.90
68350;DHT22;55268;-34.538;-58.598;2022-09-28T04:05:01;15.10;50.90
68350;DHT22;55268;-34.538;-58.598;2022-09-28T04:07:28;15.10;51.20
68350;DHT22;55268;-34.538;-58.598;2022-09-28T04:09:56;15.00;51.60
68350;DHT22;55268;-34.538;-58.598;2022-09-28T04:12:23;15.00;51.80
68350;DHT22;55268;-34.538;-58.598;2022-09-28T04:14:50;14.90;52.00
68350;DHT22;55268;-34.538;-58.598;2022-09-28T04:17:17;14.90;52.20
68350;DHT22;55268;-34.538;-58.598;2022-09-28T04:19:48;14.90;52.50
68350;DHT22;55268;-34.538;-58.598;2022-09-28T04:22:17;14.90;52.80
68350;DHT22;55268;-34.538;-58.598;2022-09-28T04:24:45;14.80;52.90
68350;DHT22;55268;-34.538;-58.598;2022-09-28T04:27:11;14.80;53.00
68350;DHT22;55268;-34.538;-58.598;2022-09-28T04:29:58;14.70;53.00
68350;DHT22;55268;-34.538;-58.598;2022-09-28T04:32:25;14.70;53.20
68350;DHT22;55268;-34.538;-58.598;2022-09-28T04:34:52;14.70;53.40
68350;DHT22;55268;-34.538;-58.598;2022-09-28T04:37:19;14.60;53.90
68350;DHT22;55268;-34.538;-58.598;2022-09-28T04:39:46;14.60;53.60
68350;DHT22;55268;-34.538;-58.598;2022-09-28T04:42:13;14.60;53.70
68350;DHT22;55268;-34.538;-58.598;2022-09-28T04:44:40;14.70;53.90
68350;DHT22;55268;-34.538;-58.598;2022-09-28T04:47:07;14.70;54.10
68350;DHT22;55268;-34.538;-58.598;2022-09-28T04:49:33;14.60;54.30
68350;DHT22;55268;-34.538;-58.598;2022-09-28T04:52:04;14.50;54.40
68350;DHT22;55268;-34.538;-58.598;2022-09-28T04:54:31;14.50;54.60
68350;DHT22;55268;-34.538;-58.598;2022-09-28T04:56:58;14.50;54.80
68350;DHT22;55268;-34.538;-58.598;2022-09-28T04:59:25;14.50;54.80
68350;DHT22;55268;-34.538;-58.598;2022-09-28T05:01:58;14.50;54.90
68350;DHT22;55268;-34.538;-58.598;2022-09-28T05:04:26;14.50;55.00
68350;DHT22;55268;-34.538;-58.598;2022-09-28T05:06:53;14.50;55.20
68350;DHT22;55268;-34.538;-58.598;2022-09-28T05:09:20;14.50;55.20
68350;DHT22;55268;-34.538;-58.598;2022-09-28T05:11:49;14.50;55.30
68350;DHT22;55268;-34.538;-58.598;2022-09-28T05:14:19;14.40;55.50
68350;DHT22;55268;-34.538;-58.598;2022-09-28T05:16:49;14.40;55.70
68350;DHT22;55268;-34.538;-58.598;2022-09-28T05:19:16;14.40;55.70
68350;DHT22;55268;-34.538;-58.598;2022-09-28T05:21:45;14.40;55.90
68350;DHT22;55268;-34.538;-58.598;2022-09-28T05:24:12;14.40;56.00
68350;DHT22;55268;-34.538;-58.598;2022-09-28T05:26:39;14.40;56.10
68350;DHT22;55268;-34.538;-58.598;2022-09-28T05:29:06;14.40;56.20
68350;DHT22;55268;-34.538;-58.598;2022-09-28T05:31:32;14.40;56.30
68350;DHT22;55268;-34.538;-58.598;2022-09-28T05:33:59;14.40;56.30
68350;DHT22;55268;-34.538;-58.598;2022-09-28T05:36:26;14.40;56.40
68350;DHT22;55268;-34.538;-58.598;2022-09-28T05:38:53;14.40;56.40
68350;DHT22;55268;-34.538;-58.598;2022-09-28T05:41:19;14.30;56.50
68350;DHT22;55268;-34.538;-58.598;2022-09-28T05:43:46;14.30;56.80
68350;DHT22;55268;-34.538;-58.598;2022-09-28T05:46:13;14.30;56.90
68350;DHT22;55268;-34.538;-58.598;2022-09-28T05:48:40;14.30;57.00
68350;DHT22;55268;-34.538;-58.598;2022-09-28T05:51:06;14.30;57.10
68350;DHT22;55268;-34.538;-58.598;2022-09-28T05:53:35;14.20;57.10
68350;DHT22;55268;-34.538;-58.598;2022-09-28T05:56:02;14.20;57.20
68350;DHT22;55268;-34.538;-58.598;2022-09-28T05:58:29;14.20;57.60
68350;DHT22;55268;-34.538;-58.598;2022-09-28T06:00:56;14.10;57.60
68350;DHT22;55268;-34.538;-58.598;2022-09-28T06:03:23;14.10;57.80
68350;DHT22;55268;-34.538;-58.598;2022-09-28T06:05:50;14.10;57.90
68350;DHT22;55268;-34.538;-58.598;2022-09-28T06:08:17;14.10;58.10
68350;DHT22;55268;-34.538;-58.598;2022-09-28T06:10:44;14.00;58.00
68350;DHT22;55268;-34.538;-58.598;2022-09-28T06:13:11;14.00;58.20
68350;DHT22;55268;-34.538;-58.598;2022-09-28T06:15:40;14.00;58.60
68350;DHT22;55268;-34.538;-58.598;2022-09-28T06:18:10;14.00;58.60
68350;DHT22;55268;-34.538;-58.598;2022-09-28T06:20:39;14.00;58.80
68350;DHT22;55268;-34.538;-58.598;2022-09-28T06:23:06;14.00;58.70
68350;DHT22;55268;-34.538;-58.598;2022-09-28T06:25:33;14.00;58.70
68350;DHT22;55268;-34.538;-58.598;2022-09-28T06:28:03;14.00;58.40
68350;DHT22;55268;-34.538;-58.598;2022-09-28T06:30:32;14.00;58.50
68350;DHT22;55268;-34.538;-58.598;2022-09-28T06:33:00;13.90;58.40
68350;DHT22;55268;-34.538;-58.598;2022-09-28T06:35:29;13.80;58.50
68350;DHT22;55268;-34.538;-58.598;2022-09-28T06:37:57;13.80;58.40
68350;DHT22;55268;-34.538;-58.598;2022-09-28T06:40:24;13.80;58.30
68350;DHT22;55268;-34.538;-58.598;2022-09-28T06:42:58;13.80;58.20
68350;DHT22;55268;-34.538;-58.598;2022-09-28T06:45:26;13.80;58.30
68350;DHT22;55268;-34.538;-58.598;2022-09-28T06:47:55;13.70;58.30
68350;DHT22;55268;-34.538;-58.598;2022-09-28T06:50:26;13.70;58.20
68350;DHT22;55268;-34.538;-58.598;2022-09-28T06:52:54;13.70;58.10
68350;DHT22;55268;-34.538;-58.598;2022-09-28T06:55:22;13.70;58.10
68350;DHT22;55268;-34.538;-58.598;2022-09-28T06:57:57;13.70;58.00
68350;DHT22;55268;-34.538;-58.598;2022-09-28T07:00:26;13.60;58.10
68350;DHT22;55268;-34.538;-58.598;2022-09-28T07:02:53;13.60;58.10
68350;DHT22;55268;-34.538;-58.598;2022-09-28T07:05:20;13.60;58.20
68350;DHT22;55268;-34.538;-58.598;2022-09-28T07:07:53;13.60;58.30
68350;DHT22;55268;-34.538;-58.598;2022-09-28T07:10:23;13.60;58.20
68350;DHT22;55268;-34.538;-58.598;2022-09-28T07:12:51;13.50;58.40
68350;DHT22;55268;-34.538;-58.598;2022-09-28T07:15:18;13.50;58.40
68350;DHT22;55268;-34.538;-58.598;2022-09-28T07:17:45;13.50;58.60
68350;DHT22;55268;-34.538;-58.598;2022-09-28T07:20:12;13.50;58.70
68350;DHT22;55268;-34.538;-58.598;2022-09-28T07:22:39;13.40;58.50
68350;DHT22;55268;-34.538;-58.598;2022-09-28T07:25:07;13.40;58.70
68350;DHT22;55268;-34.538;-58.598;2022-09-28T07:27:34;13.30;58.80
68350;DHT22;55268;-34.538;-58.598;2022-09-28T07:30:05;13.30;59.00
68350;DHT22;55268;-34.538;-58.598;2022-09-28T07:32:32;13.20;59.20
68350;DHT22;55268;-34.538;-58.598;2022-09-28T07:35:02;13.20;59.30
68350;DHT22;55268;-34.538;-58.598;2022-09-28T07:37:34;13.20;59.30
68350;DHT22;55268;-34.538;-58.598;2022-09-28T07:40:03;13.10;59.60
68350;DHT22;55268;-34.538;-58.598;2022-09-28T07:42:50;13.10;59.90
68350;DHT22;55268;-34.538;-58.598;2022-09-28T07:45:17;13.10;59.70
68350;DHT22;55268;-34.538;-58.598;2022-09-28T07:47:46;13.00;59.80
68350;DHT22;55268;-34.538;-58.598;2022-09-28T07:50:13;12.90;60.00
68350;DHT22;55268;-34.538;-58.598;2022-09-28T07:52:40;12.90;60.20
68350;DHT22;55268;-34.538;-58.598;2022-09-28T07:55:08;12.80;59.90
68350;DHT22;55268;-34.538;-58.598;2022-09-28T07:57:35;12.80;59.90
68350;DHT22;55268;-34.538;-58.598;2022-09-28T08:00:02;12.80;60.10
68350;DHT22;55268;-34.538;-58.598;2022-09-28T08:02:31;12.70;60.40
68350;DHT22;55268;-34.538;-58.598;2022-09-28T08:05:01;12.70;60.30
68350;DHT22;55268;-34.538;-58.598;2022-09-28T08:07:28;12.80;60.20
68350;DHT22;55268;-34.538;-58.598;2022-09-28T08:09:55;12.70;60.20
68350;DHT22;55268;-34.538;-58.598;2022-09-28T08:12:21;12.70;60.30
68350;DHT22;55268;-34.538;-58.598;2022-09-28T08:14:48;12.60;60.50
68350;DHT22;55268;-34.538;-58.598;2022-09-28T08:17:17;12.60;60.30
68350;DHT22;55268;-34.538;-58.598;2022-09-28T08:19:44;12.60;60.60
68350;DHT22;55268;-34.538;-58.598;2022-09-28T08:22:30;12.60;60.40
68350;DHT22;55268;-34.538;-58.598;2022-09-28T08:24:57;12.60;60.20
68350;DHT22;55268;-34.538;-58.598;2022-09-28T08:27:24;12.60;60.30
68350;DHT22;55268;-34.538;-58.598;2022-09-28T08:29:51;12.50;60.40
68350;DHT22;55268;-34.538;-58.598;2022-09-28T08:32:17;12.50;60.50
68350;DHT22;55268;-34.538;-58.598;2022-09-28T08:34:45;12.50;60.30
68350;DHT22;55268;-34.538;-58.598;2022-09-28T08:37:11;12.50;60.30
68350;DHT22;55268;-34.538;-58.598;2022-09-28T08:39:38;12.50;60.50
68350;DHT22;55268;-34.538;-58.598;2022-09-28T08:44:45;12.60;60.20
68350;DHT22;55268;-34.538;-58.598;2022-09-28T08:47:20;12.60;60.20
68350;DHT22;55268;-34.538;-58.598;2022-09-28T08:50:14;12.60;60.10
68350;DHT22;55268;-34.538;-58.598;2022-09-28T08:52:46;12.60;60.30
68350;DHT22;55268;-34.538;-58.598;2022-09-28T08:55:24;12.60;60.10
68350;DHT22;55268;-34.538;-58.598;2022-09-28T08:58:04;12.60;60.10
68350;DHT22;55268;-34.538;-58.598;2022-09-28T09:00:46;12.60;60.00
68350;DHT22;55268;-34.538;-58.598;2022-09-28T09:03:18;12.60;60.20
68350;DHT22;55268;-34.538;-58.598;2022-09-28T09:05:50;12.60;59.80
68350;DHT22;55268;-34.538;-58.598;2022-09-28T09:14:27;12.60;59.60
68350;DHT22;55268;-34.538;-58.598;2022-09-28T09:19:34;12.60;59.70
68350;DHT22;55268;-34.538;-58.598;2022-09-28T09:30:17;12.60;59.50
68350;DHT22;55268;-34.538;-58.598;2022-09-28T09:43:58;12.50;59.30
68350;DHT22;55268;-34.538;-58.598;2022-09-28T09:49:03;12.50;59.70
68350;DHT22;55268;-34.538;-58.598;2022-09-28T09:51:45;12.40;59.60
68350;DHT22;55268;-34.538;-58.598;2022-09-28T09:54:36;12.50;59.60
68350;DHT22;55268;-34.538;-58.598;2022-09-28T09:59:41;12.50;59.90
68350;DHT22;55268;-34.538;-58.598;2022-09-28T10:02:24;12.50;59.50
68350;DHT22;55268;-34.538;-58.598;2022-09-28T10:10:28;12.40;59.50
68350;DHT22;55268;-34.538;-58.598;2022-09-28T10:12:56;12.40;59.40
68350;DHT22;55268;-34.538;-58.598;2022-09-28T10:15:28;12.40;59.70
68350;DHT22;55268;-34.538;-58.598;2022-09-28T10:18:02;12.40;59.40
68350;DHT22;55268;-34.538;-58.598;2022-09-28T10:20:33;12.40;59.60
68350;DHT22;55268;-34.538;-58.598;2022-09-28T10:23:03;12.40;59.70
68350;DHT22;55268;-34.538;-58.598;2022-09-28T10:25:35;12.40;59.60
68350;DHT22;55268;-34.538;-58.598;2022-09-28T10:28:05;12.40;59.40
68350;DHT22;55268;-34.538;-58.598;2022-09-28T10:30:37;12.50;59.10
68350;DHT22;55268;-34.538;-58.598;2022-09-28T10:33:29;12.50;59.40
68350;DHT22;55268;-34.538;-58.598;2022-09-28T10:35:59;12.50;59.20
68350;DHT22;55268;-34.538;-58.598;2022-09-28T10:38:26;12.50;59.10
68350;DHT22;55268;-34.538;-58.598;2022-09-28T10:40:58;12.60;59.00
68350;DHT22;55268;-34.538;-58.598;2022-09-28T10:43:35;12.60;59.00
68350;DHT22;55268;-34.538;-58.598;2022-09-28T10:46:13;12.60;58.80
68350;DHT22;55268;-34.538;-58.598;2022-09-28T10:48:53;12.60;58.70
68350;DHT22;55268;-34.538;-58.598;2022-09-28T10:51:39;12.60;59.00
68350;DHT22;55268;-34.538;-58.598;2022-09-28T10:54:16;12.60;58.80
68350;DHT22;55268;-34.538;-58.598;2022-09-28T10:56:44;12.60;59.10
68350;DHT22;55268;-34.538;-58.598;2022-09-28T11:02:01;12.70;58.80
68350;DHT22;55268;-34.538;-58.598;2022-09-28T11:04:41;12.80;58.90
68350;DHT22;55268;-34.538;-58.598;2022-09-28T11:07:29;12.80;58.80
68350;DHT22;55268;-34.538;-58.598;2022-09-28T11:09:58;12.90;58.80
68350;DHT22;55268;-34.538;-58.598;2022-09-28T11:12:28;12.90;58.80
68350;DHT22;55268;-34.538;-58.598;2022-09-28T11:15:00;12.90;59.00
68350;DHT22;55268;-34.538;-58.598;2022-09-28T11:17:30;12.90;59.00
68350;DHT22;55268;-34.538;-58.598;2022-09-28T11:20:00;13.00;58.60
68350;DHT22;55268;-34.538;-58.598;2022-09-28T11:33:14;13.30;58.30
68350;DHT22;55268;-34.538;-58.598;2022-09-28T11:46:12;13.40;58.40
68350;DHT22;55268;-34.538;-58.598;2022-09-28T11:48:48;13.50;58.20
68350;DHT22;55268;-34.538;-58.598;2022-09-28T11:51:22;13.50;58.10
68350;DHT22;55268;-34.538;-58.598;2022-09-28T11:56:43;13.70;57.80
68350;DHT22;55268;-34.538;-58.598;2022-09-28T11:59:13;13.80;58.10
68350;DHT22;55268;-34.538;-58.598;2022-09-28T12:01:59;13.90;57.60
68350;DHT22;55268;-34.538;-58.598;2022-09-28T12:04:37;14.00;57.10
68350;DHT22;55268;-34.538;-58.598;2022-09-28T12:09:42;14.10;57.00
68350;DHT22;55268;-34.538;-58.598;2022-09-28T12:14:54;14.20;56.70
68350;DHT22;55268;-34.538;-58.598;2022-09-28T12:17:44;14.20;57.30
68350;DHT22;55268;-34.538;-58.598;2022-09-28T12:20:29;14.20;56.70
68350;DHT22;55268;-34.538;-58.598;2022-09-28T12:25:28;14.40;56.70
68350;DHT22;55268;-34.538;-58.598;2022-09-28T12:28:02;14.40;56.80
68350;DHT22;55268;-34.538;-58.598;2022-09-28T12:30:35;14.40;57.10
68350;DHT22;55268;-34.538;-58.598;2022-09-28T12:33:10;14.40;57.70
68350;DHT22;55268;-34.538;-58.598;2022-09-28T12:51:52;15.10;55.90
68350;DHT22;55268;-34.538;-58.598;2022-09-28T12:57:03;15.00;55.80
68350;DHT22;55268;-34.538;-58.598;2022-09-28T12:59:37;15.00;56.60
68350;DHT22;55268;-34.538;-58.598;2022-09-28T13:02:29;15.10;56.20
68350;DHT22;55268;-34.538;-58.598;2022-09-28T13:05:36;15.20;55.00
68350;DHT22;55268;-34.538;-58.598;2022-09-28T13:08:13;15.30;56.00
68350;DHT22;55268;-34.538;-58.598;2022-09-28T13:16:33;15.30;54.70
68350;DHT22;55268;-34.538;-58.598;2022-09-28T13:19:15;15.30;55.20
68350;DHT22;55268;-34.538;-58.598;2022-09-28T13:22:01;15.30;55.20
68350;DHT22;55268;-34.538;-58.598;2022-09-28T13:24:34;15.30;55.50
68350;DHT22;55268;-34.538;-58.598;2022-09-28T13:27:08;15.30;54.70
68350;DHT22;55268;-34.538;-58.598;2022-09-28T13:29:37;15.30;54.70
68350;DHT22;55268;-34.538;-58.598;2022-09-28T13:32:07;15.40;54.20
68350;DHT22;55268;-34.538;-58.598;2022-09-28T13:34:37;15.40;54.30
68350;DHT22;55268;-34.538;-58.598;2022-09-28T13:37:22;15.40;55.50
68350;DHT22;55268;-34.538;-58.598;2022-09-28T13:39:55;15.40;54.20
68350;DHT22;55268;-34.538;-58.598;2022-09-28T13:42:41;15.50;55.00
